Time;durP1;ratioP1;P1;durP2;ratioP2;P2;SDS_P1;SDS_P2;PMS_P1;PMS_P2;Temp;Humidity;BMP_temperature;BMP_pressure;BME280_temperature;BME280_humidity;BME280_pressure;Samples;Min_cycle;Max_cycle;Signal;HPM_P1;HPM_P2
2022/11/24 00:00:33;;;;;;;27.10;4.65;;;9.30;99.90;;;;;;4979493;28;20026;-70
2022/11/24 00:02:59;;;;;;;26.65;4.15;;;9.20;99.90;;;;;;4972709;28;20121;-70
2022/11/24 00:05:25;;;;;;;32.03;4.70;;;9.20;99.90;;;;;;4988973;28;20037;-70
2022/11/24 00:07:51;;;;;;;21.83;3.90;;;9.30;99.90;;;;;;4979013;28;20030;-69
2022/11/24 00:10:17;;;;;;;25.75;4.32;;;9.20;99.90;;;;;;4987104;28;20034;-72
2022/11/24 00:12:42;;;;;;;25.73;4.45;;;9.20;99.90;;;;;;4989620;28;20100;-70
2022/11/24 00:15:08;;;;;;;25.42;4.32;;;9.20;99.90;;;;;;4990675;28;20078;-69
2022/11/24 00:17:34;;;;;;;28.50;4.75;;;9.20;99.90;;;;;;4990243;28;20054;-70
2022/11/24 00:19:59;;;;;;;21.10;4.18;;;9.20;99.90;;;;;;4990094;28;20081;-70
2022/11/24 00:22:25;;;;;;;27.25;4.35;;;9.20;99.90;;;;;;4989608;28;20031;-70
2022/11/24 00:24:51;;;;;;;29.77;4.82;;;9.20;99.90;;;;;;4989569;28;20390;-69
2022/11/24 00:27:16;;;;;;;27.55;4.57;;;9.20;99.90;;;;;;4976694;28;20279;-70
2022/11/24 00:29:42;;;;;;;26.10;4.05;;;9.20;99.90;;;;;;4986510;28;20033;-71
2022/11/24 00:32:07;;;;;;;23.48;3.95;;;9.20;99.90;;;;;;4986445;28;20027;-70
2022/11/24 00:34:33;;;;;;;26.95;3.90;;;9.30;99.90;;;;;;4982645;28;20026;-69
2022/11/24 00:36:59;;;;;;;20.92;3.83;;;9.20;99.90;;;;;;4978943;28;20117;-70
2022/11/24 00:39:25;;;;;;;25.38;4.00;;;9.20;99.90;;;;;;4983718;28;20487;-70
2022/11/24 00:41:50;;;;;;;25.60;4.25;;;9.20;99.90;;;;;;4989187;28;20100;-71
2022/11/24 00:44:16;;;;;;;21.33;4.15;;;9.20;99.90;;;;;;4982013;28;20036;-70
2022/11/24 00:46:42;;;;;;;21.15;3.80;;;9.20;99.90;;;;;;4989827;28;20043;-69
2022/11/24 00:49:08;;;;;;;27.50;3.95;;;9.20;99.90;;;;;;4984667;28;20023;-70
2022/11/24 00:51:33;;;;;;;23.85;3.80;;;9.10;99.90;;;;;;4981936;28;20366;-70
2022/11/24 00:54:00;;;;;;;18.73;3.50;;;9.20;99.90;;;;;;4983402;28;20034;-69
2022/11/24 00:56:27;;;;;;;25.95;3.83;;;9.20;99.90;;;;;;4988159;28;20027;-70
2022/11/24 00:58:53;;;;;;;19.33;3.17;;;9.20;99.90;;;;;;4984512;28;20057;-70
2022/11/24 01:01:25;;;;;;;18.23;3.72;;;9.20;99.90;;;;;;4984925;28;20483;-70
2022/11/24 01:03:54;;;;;;;19.85;3.40;;;9.20;99.90;;;;;;4974707;28;20030;-70
2022/11/24 01:06:22;;;;;;;19.55;3.55;;;9.10;99.90;;;;;;4985187;28;20065;-71
2022/11/24 01:08:48;;;;;;;22.83;3.53;;;9.20;99.90;;;;;;4974362;28;20117;-70
2022/11/24 01:11:16;;;;;;;21.67;3.78;;;9.20;99.90;;;;;;4988690;28;20106;-70
2022/11/24 01:13:44;;;;;;;22.15;3.20;;;9.10;99.90;;;;;;4986770;28;20027;-70
2022/11/24 01:16:22;;;;;;;19.67;3.45;;;9.10;99.90;;;;;;4975556;28;20034;-69
2022/11/24 01:18:48;;;;;;;20.38;3.10;;;9.20;99.90;;;;;;4982407;28;20511;-69
2022/11/24 01:21:15;;;;;;;14.63;3.63;;;9.10;99.90;;;;;;4978665;28;20434;-69
2022/11/24 01:23:41;;;;;;;22.05;3.95;;;9.20;99.90;;;;;;4983064;28;20026;-70
2022/11/24 01:26:09;;;;;;;22.85;3.47;;;9.20;99.90;;;;;;4984577;28;20030;-70
2022/11/24 01:28:35;;;;;;;22.75;3.50;;;9.20;99.90;;;;;;4986746;28;20029;-70
2022/11/24 01:31:03;;;;;;;20.98;3.20;;;9.20;99.90;;;;;;4989042;28;20011;-69
2022/11/24 01:33:30;;;;;;;21.38;3.65;;;9.20;99.90;;;;;;4986286;28;20113;-70
2022/11/24 01:35:57;;;;;;;16.20;3.10;;;9.20;99.90;;;;;;4992432;28;20307;-70
2022/11/24 01:38:24;;;;;;;21.13;3.10;;;9.20;99.90;;;;;;4994123;28;20026;-70
2022/11/24 01:40:58;;;;;;;17.90;3.42;;;9.20;99.90;;;;;;4992915;28;20068;-71
2022/11/24 01:43:24;;;;;;;17.85;3.28;;;9.30;99.90;;;;;;4987321;28;20039;-70
2022/11/24 01:45:50;;;;;;;21.40;3.20;;;9.20;99.90;;;;;;4975042;28;20055;-70
2022/11/24 01:48:39;;;;;;;18.88;2.88;;;9.30;99.90;;;;;;4992839;28;20418;-69
2022/11/24 01:51:16;;;;;;;19.45;3.45;;;9.30;99.90;;;;;;4992798;28;21279;-69
2022/11/24 01:53:45;;;;;;;19.73;3.75;;;9.30;99.90;;;;;;4991288;28;20522;-70
2022/11/24 01:56:12;;;;;;;19.20;3.28;;;9.30;99.90;;;;;;4992068;28;20022;-70
2022/11/24 01:58:41;;;;;;;19.63;3.42;;;9.20;99.90;;;;;;4986060;28;20483;-71
2022/11/24 02:01:07;;;;;;;17.13;3.15;;;9.20;99.90;;;;;;4981290;28;20495;-72
2022/11/24 02:03:37;;;;;;;20.23;3.55;;;9.20;99.90;;;;;;4993519;28;20525;-70
2022/11/24 02:06:11;;;;;;;17.60;3.00;;;9.20;99.90;;;;;;4991084;28;20125;-69
2022/11/24 02:08:47;;;;;;;18.70;3.22;;;9.20;99.90;;;;;;4992496;28;20093;-70
2022/11/24 02:11:13;;;;;;;16.00;2.97;;;9.20;99.90;;;;;;4986444;28;20457;-70
2022/11/24 02:13:40;;;;;;;22.88;3.92;;;9.20;99.90;;;;;;4990348;28;20094;-70
2022/11/24 02:16:09;;;;;;;15.48;3.10;;;9.20;99.90;;;;;;4982933;28;20038;-70
2022/11/24 02:18:40;;;;;;;15.43;2.67;;;9.10;99.90;;;;;;4986310;28;20019;-70
2022/11/24 02:21:06;;;;;;;13.90;2.58;;;9.10;99.90;;;;;;4992728;28;20046;-70
2022/11/24 02:23:47;;;;;;;16.75;2.95;;;9.10;99.90;;;;;;4991548;28;20432;-69
2022/11/24 02:26:34;;;;;;;18.98;2.97;;;9.10;99.90;;;;;;4988321;28;20026;-70
2022/11/24 02:29:01;;;;;;;14.23;2.25;;;9.10;99.90;;;;;;4992049;28;20077;-70
2022/11/24 02:31:27;;;;;;;18.58;2.13;;;9.00;99.90;;;;;;4993101;28;20355;-70
2022/11/24 02:33:54;;;;;;;9.15;1.40;;;9.00;99.90;;;;;;4991742;28;20371;-69
2022/11/24 02:36:20;;;;;;;11.57;1.77;;;9.00;99.90;;;;;;4992206;28;20514;-70
2022/11/24 02:38:45;;;;;;;8.52;1.83;;;9.00;99.90;;;;;;4990852;28;20026;-70
2022/11/24 02:41:16;;;;;;;10.63;1.45;;;9.00;99.90;;;;;;4989013;28;20483;-70
2022/11/24 02:43:47;;;;;;;7.88;1.45;;;9.00;99.90;;;;;;4986468;28;20022;-71
2022/11/24 02:46:13;;;;;;;6.45;1.15;;;9.00;99.90;;;;;;4992248;28;20046;-69
2022/11/24 02:48:38;;;;;;;9.82;1.48;;;9.00;99.90;;;;;;4981266;28;20033;-69
2022/11/24 02:51:04;;;;;;;7.57;1.40;;;9.00;99.90;;;;;;4986896;28;20113;-69
2022/11/24 02:53:30;;;;;;;4.22;0.60;;;9.00;99.90;;;;;;4991431;28;20572;-71
2022/11/24 02:55:56;;;;;;;3.20;0.82;;;9.10;99.90;;;;;;4988689;28;20023;-70
2022/11/24 02:58:21;;;;;;;3.20;0.60;;;9.00;99.90;;;;;;4990484;28;20026;-70
2022/11/24 03:00:47;;;;;;;2.33;0.65;;;9.10;99.90;;;;;;4992101;28;20033;-70
2022/11/24 03:03:13;;;;;;;2.03;0.45;;;9.10;99.90;;;;;;4986455;28;20022;-70
2022/11/24 03:05:39;;;;;;;1.52;0.70;;;9.10;99.90;;;;;;4984520;28;20025;-70
2022/11/24 03:08:05;;;;;;;5.20;1.02;;;9.20;99.90;;;;;;4973935;28;20399;-70
2022/11/24 03:10:31;;;;;;;6.00;0.90;;;9.20;99.90;;;;;;4972477;28;20027;-70
2022/11/24 03:12:57;;;;;;;6.00;1.13;;;9.20;99.90;;;;;;4986533;28;20030;-69
2022/11/24 03:15:23;;;;;;;12.02;1.65;;;9.20;99.90;;;;;;4974914;28;20023;-70
2022/11/24 03:17:49;;;;;;;10.50;1.95;;;9.20;99.90;;;;;;4986423;28;20058;-70
2022/11/24 03:20:15;;;;;;;6.65;1.55;;;9.20;99.90;;;;;;4985837;28;20391;-71
2022/11/24 03:22:41;;;;;;;8.40;1.48;;;9.20;99.90;;;;;;4984441;28;20042;-70
2022/11/24 03:25:07;;;;;;;14.15;2.08;;;9.20;99.90;;;;;;4987665;28;20030;-70
2022/11/24 03:27:33;;;;;;;12.25;2.03;;;9.20;99.90;;;;;;4981058;28;20027;-69
2022/11/24 03:29:58;;;;;;;14.05;2.00;;;9.20;99.90;;;;;;4986609;28;20054;-69
2022/11/24 03:32:24;;;;;;;12.70;2.25;;;9.20;99.90;;;;;;4984702;28;20070;-70
2022/11/24 03:34:50;;;;;;;14.68;2.40;;;9.20;99.90;;;;;;4991555;28;20034;-71
2022/11/24 03:37:15;;;;;;;17.35;2.65;;;9.20;99.90;;;;;;4991002;28;20475;-70
2022/11/24 03:39:41;;;;;;;11.70;2.60;;;9.20;99.90;;;;;;4988237;28;20030;-70
2022/11/24 03:42:06;;;;;;;10.82;2.45;;;9.20;99.90;;;;;;4991923;28;20042;-71
2022/11/24 03:44:32;;;;;;;15.23;2.75;;;9.20;99.90;;;;;;4989855;28;20022;-69
2022/11/24 03:46:58;;;;;;;13.45;2.92;;;9.20;99.90;;;;;;4988532;28;20046;-70
2022/11/24 03:49:23;;;;;;;13.95;3.10;;;9.20;99.90;;;;;;4988672;28;20126;-71
2022/11/24 03:51:49;;;;;;;16.02;3.03;;;9.20;99.90;;;;;;4982755;28;20044;-69
2022/11/24 03:54:15;;;;;;;18.23;3.28;;;9.20;99.90;;;;;;4990095;28;20022;-69
2022/11/24 03:56:40;;;;;;;14.48;3.03;;;9.20;99.90;;;;;;4990610;28;20026;-70
2022/11/24 03:59:06;;;;;;;14.95;3.20;;;9.20;99.90;;;;;;4988519;28;20030;-70
2022/11/24 04:01:32;;;;;;;12.52;3.10;;;9.10;99.90;;;;;;4983808;28;20088;-72
2022/11/24 04:03:57;;;;;;;16.55;2.88;;;9.10;99.90;;;;;;4987188;28;20341;-69
2022/11/24 04:06:23;;;;;;;10.95;2.15;;;9.00;99.90;;;;;;4989324;28;20447;-70
2022/11/24 04:08:48;;;;;;;9.82;1.83;;;8.90;99.90;;;;;;4971949;28;20053;-69
2022/11/24 04:12:42;;;;;;;10.45;1.90;;;8.90;99.90;;;;;;4984769;28;20780;-69
2022/11/24 04:13:59;;;;;;;;;;;8.70;99.90;;;;;;4991144;28;20049;-70
2022/11/24 04:16:25;;;;;;;9.30;1.27;;;8.60;99.90;;;;;;4988871;28;19909;-71
2022/11/24 04:18:53;;;;;;;6.43;1.20;;;8.50;99.90;;;;;;4990855;28;20061;-70
2022/11/24 04:21:20;;;;;;;6.55;1.00;;;8.50;99.90;;;;;;4990012;28;20031;-72
2022/11/24 04:23:46;;;;;;;7.75;1.35;;;8.40;99.90;;;;;;4982142;28;20023;-69
2022/11/24 04:26:12;;;;;;;3.33;0.90;;;8.40;99.90;;;;;;4978284;28;20372;-70
2022/11/24 04:28:38;;;;;;;7.65;0.80;;;8.30;99.90;;;;;;4985123;28;20033;-70
2022/11/24 04:31:04;;;;;;;3.75;0.82;;;8.30;99.90;;;;;;4983007;28;20553;-70
2022/11/24 04:33:30;;;;;;;4.97;0.75;;;8.20;99.90;;;;;;4988220;28;20109;-71
2022/11/24 04:35:56;;;;;;;5.45;0.95;;;8.20;99.90;;;;;;4976197;28;20039;-71
2022/11/24 04:38:22;;;;;;;13.50;1.17;;;8.10;99.90;;;;;;4981825;28;20023;-70
2022/11/24 04:40:47;;;;;;;6.43;1.00;;;8.10;99.90;;;;;;4975740;28;20541;-70
2022/11/24 04:43:13;;;;;;;4.85;0.98;;;8.10;99.90;;;;;;4990816;28;20040;-69
2022/11/24 04:45:38;;;;;;;9.05;1.25;;;8.10;99.90;;;;;;4987521;28;20043;-69
2022/11/24 04:48:04;;;;;;;7.05;1.00;;;8.00;99.90;;;;;;4983628;28;20442;-70
2022/11/24 04:50:30;;;;;;;5.63;0.90;;;8.00;99.90;;;;;;4990204;28;20383;-71
2022/11/24 04:52:56;;;;;;;3.10;0.68;;;8.00;99.90;;;;;;4989785;28;20501;-70
2022/11/24 04:55:21;;;;;;;7.80;0.70;;;8.00;99.90;;;;;;4989231;28;20054;-71
2022/11/24 04:57:47;;;;;;;6.70;0.93;;;8.00;99.90;;;;;;4990403;28;20026;-72
2022/11/24 05:00:13;;;;;;;5.25;0.70;;;8.00;99.90;;;;;;4991177;28;20062;-70
2022/11/24 05:02:39;;;;;;;5.80;1.08;;;7.90;99.90;;;;;;4993359;28;20039;-69
2022/11/24 05:05:05;;;;;;;4.50;0.70;;;7.90;99.90;;;;;;4979569;28;20026;-69
2022/11/24 05:07:31;;;;;;;4.30;0.60;;;7.90;99.90;;;;;;4994104;28;20069;-70
2022/11/24 05:12:41;;;;;;;10.15;0.75;;;7.80;99.90;;;;;;4993574;28;20073;-69
2022/11/24 05:15:07;;;;;;;2.40;0.75;;;7.90;99.90;;;;;;4993570;28;20030;-70
2022/11/24 05:17:38;;;;;;;8.32;1.30;;;7.90;99.90;;;;;;4992981;28;20478;-71
2022/11/24 05:20:05;;;;;;;9.27;2.15;;;7.90;99.90;;;;;;4993649;28;20061;-69
2022/11/24 05:22:30;;;;;;;6.75;1.92;;;7.90;99.90;;;;;;4993619;28;20442;-69
2022/11/24 05:24:56;;;;;;;7.53;2.00;;;7.90;99.90;;;;;;4993406;28;20050;-69
2022/11/24 05:27:22;;;;;;;8.52;2.13;;;7.90;99.90;;;;;;4993611;28;20097;-70
2022/11/24 05:29:48;;;;;;;5.90;1.33;;;7.90;99.90;;;;;;4993265;28;20133;-71
2022/11/24 05:32:13;;;;;;;5.53;1.20;;;7.90;99.90;;;;;;5004353;28;20011;-70
2022/11/24 05:34:39;;;;;;;7.05;1.10;;;7.90;99.90;;;;;;4984565;28;20109;-69
2022/11/24 05:37:05;;;;;;;5.93;1.10;;;8.00;99.90;;;;;;4993766;28;20022;-70
2022/11/24 05:39:32;;;;;;;5.40;1.15;;;8.00;99.90;;;;;;4991579;28;20022;-70
2022/11/24 05:41:58;;;;;;;9.15;1.70;;;8.00;99.90;;;;;;4993618;28;20023;-70
2022/11/24 05:44:24;;;;;;;6.18;1.70;;;8.00;99.90;;;;;;4992705;28;20109;-72
2022/11/24 05:46:50;;;;;;;8.73;2.60;;;8.10;99.90;;;;;;4983388;28;20100;-70
2022/11/24 05:49:15;;;;;;;4.78;2.70;;;8.10;99.90;;;;;;4990791;28;20109;-72
2022/11/24 05:51:41;;;;;;;8.95;3.13;;;8.20;99.90;;;;;;4992742;28;20395;-70
2022/11/24 05:54:06;;;;;;;7.25;3.20;;;8.20;99.90;;;;;;4991914;28;20033;-71
2022/11/24 05:56:32;;;;;;;10.00;3.80;;;8.20;99.90;;;;;;4991987;28;20045;-70
2022/11/24 05:58:57;;;;;;;7.63;3.55;;;8.20;99.90;;;;;;4992856;28;20281;-70
2022/11/24 06:01:23;;;;;;;12.40;4.18;;;8.20;99.90;;;;;;4993552;28;20057;-70
2022/11/24 06:03:49;;;;;;;10.18;3.72;;;8.20;99.90;;;;;;4987098;28;20015;-70
2022/11/24 06:06:14;;;;;;;10.05;3.60;;;8.20;99.90;;;;;;4987379;28;20544;-70
2022/11/24 06:08:40;;;;;;;9.45;3.50;;;8.20;99.90;;;;;;4990902;28;20057;-70
2022/11/24 06:11:23;;;;;;;7.85;3.20;;;8.20;99.90;;;;;;4990237;28;20026;-71
2022/11/24 06:13:49;;;;;;;12.45;3.80;;;8.20;99.90;;;;;;4989905;28;20026;-70
2022/11/24 06:16:15;;;;;;;9.40;4.10;;;8.20;99.90;;;;;;4991452;28;20026;-70
2022/11/24 06:18:40;;;;;;;8.15;3.08;;;8.20;99.90;;;;;;4986807;28;20023;-70
2022/11/24 06:21:06;;;;;;;7.18;3.00;;;8.20;99.90;;;;;;4990506;28;20034;-70
2022/11/24 06:23:32;;;;;;;8.70;2.97;;;8.20;99.90;;;;;;4991441;28;20432;-70
2022/11/24 06:25:58;;;;;;;11.45;3.22;;;8.20;99.90;;;;;;4993215;28;20463;-69
2022/11/24 06:28:24;;;;;;;13.13;3.42;;;8.20;99.90;;;;;;4992541;28;20058;-72
2022/11/24 06:30:50;;;;;;;8.00;2.90;;;8.20;99.90;;;;;;4992542;28;20309;-70
2022/11/24 06:33:16;;;;;;;10.90;3.13;;;8.20;99.90;;;;;;4992392;28;20033;-70
2022/11/24 06:35:41;;;;;;;10.90;3.28;;;8.20;99.90;;;;;;4993097;28;20045;-71
2022/11/24 06:38:07;;;;;;;11.60;3.53;;;8.20;99.90;;;;;;4991603;28;20031;-70
2022/11/24 06:40:32;;;;;;;14.35;3.33;;;8.20;99.90;;;;;;4991178;28;20042;-70
2022/11/24 06:42:58;;;;;;;7.68;2.90;;;8.30;99.90;;;;;;4991713;28;20026;-71
2022/11/24 06:45:24;;;;;;;11.23;3.50;;;8.30;99.90;;;;;;4991690;28;20042;-71
2022/11/24 06:47:53;;;;;;;12.13;4.05;;;8.20;99.90;;;;;;4991894;28;20030;-71
2022/11/24 06:50:18;;;;;;;15.93;4.93;;;8.30;99.90;;;;;;4990223;28;20041;-72
2022/11/24 06:52:44;;;;;;;11.30;3.95;;;8.30;99.90;;;;;;4990475;28;20049;-72
2022/11/24 06:55:09;;;;;;;10.68;4.03;;;8.30;99.90;;;;;;4989912;28;20018;-71
2022/11/24 06:57:35;;;;;;;10.50;4.30;;;8.30;99.90;;;;;;4971042;28;20018;-71
2022/11/24 07:00:03;;;;;;;18.90;5.07;;;8.30;99.90;;;;;;4983637;28;20407;-71
2022/11/24 07:02:28;;;;;;;16.45;4.53;;;8.30;99.90;;;;;;4990561;28;20047;-72
2022/11/24 07:04:54;;;;;;;13.93;4.35;;;8.40;99.90;;;;;;4989878;28;20037;-71
2022/11/24 07:07:19;;;;;;;15.68;4.47;;;8.30;99.90;;;;;;4979482;28;20110;-71
2022/11/24 07:09:45;;;;;;;15.57;4.65;;;8.40;99.90;;;;;;4987406;28;20019;-71
2022/11/24 07:12:10;;;;;;;13.25;3.63;;;8.40;99.90;;;;;;4981041;28;20019;-70
2022/11/24 07:14:36;;;;;;;15.63;3.92;;;8.40;99.90;;;;;;4985569;28;20033;-70
2022/11/24 07:17:03;;;;;;;19.20;4.55;;;8.40;99.90;;;;;;4989997;28;20092;-71
2022/11/24 07:19:29;;;;;;;10.35;4.00;;;8.50;99.90;;;;;;4992068;28;20109;-71
2022/11/24 07:21:55;;;;;;;14.48;4.07;;;8.50;99.90;;;;;;4977713;28;20110;-72
2022/11/24 07:24:21;;;;;;;16.45;4.82;;;8.50;99.90;;;;;;4979738;28;20068;-72
2022/11/24 07:26:46;;;;;;;13.32;3.50;;;8.50;99.90;;;;;;4989203;28;20030;-72
2022/11/24 07:29:12;;;;;;;18.58;4.50;;;8.60;99.90;;;;;;4982517;28;20130;-70
2022/11/24 07:31:37;;;;;;;19.25;4.35;;;8.60;99.90;;;;;;4973470;28;20027;-71
2022/11/24 07:34:03;;;;;;;21.13;4.38;;;8.60;99.90;;;;;;4984141;28;20073;-71
2022/11/24 07:36:29;;;;;;;17.33;3.65;;;8.60;99.90;;;;;;4985173;28;20042;-70
2022/11/24 07:38:54;;;;;;;20.48;3.50;;;8.60;99.90;;;;;;4991002;28;20018;-71
2022/11/24 07:41:20;;;;;;;19.98;3.85;;;8.60;99.90;;;;;;4990351;28;20117;-71
2022/11/24 07:43:47;;;;;;;18.83;3.55;;;8.50;99.90;;;;;;4991399;28;20122;-71
2022/11/24 07:46:20;;;;;;;19.45;3.58;;;8.50;99.90;;;;;;5107701;27;20441;-71
2022/11/24 07:48:46;;;;;;;16.48;3.33;;;8.50;99.90;;;;;;5090965;28;20028;-71
2022/11/24 07:51:11;;;;;;;17.10;3.65;;;8.40;99.90;;;;;;5087125;28;20488;-73
2022/11/24 07:53:38;;;;;;;19.20;2.92;;;8.40;99.90;;;;;;5086887;28;20095;-72
2022/11/24 07:56:05;;;;;;;16.67;3.45;;;8.40;99.90;;;;;;5087122;28;20103;-72
2022/11/24 07:58:33;;;;;;;17.35;3.75;;;8.40;99.90;;;;;;5087527;28;20024;-71
2022/11/24 08:01:08;;;;;;;19.80;4.03;;;8.40;99.90;;;;;;5071128;28;20036;-71
2022/11/24 08:03:34;;;;;;;12.73;3.53;;;8.40;99.90;;;;;;5087253;28;20093;-71
2022/11/24 08:06:00;;;;;;;20.90;3.65;;;8.30;99.90;;;;;;5086908;28;20031;-71
2022/11/24 08:08:26;;;;;;;19.25;4.00;;;8.30;99.90;;;;;;5086775;28;20024;-71
2022/11/24 08:10:51;;;;;;;21.92;3.42;;;8.30;99.90;;;;;;5087637;28;20032;-72
2022/11/24 08:13:18;;;;;;;25.60;3.85;;;8.30;99.90;;;;;;5085958;28;20056;-72
2022/11/24 08:15:44;;;;;;;20.58;3.92;;;8.30;99.90;;;;;;5086735;28;20020;-70
2022/11/24 08:18:10;;;;;;;18.00;3.70;;;8.30;99.90;;;;;;5089287;28;20046;-73
2022/11/24 08:20:36;;;;;;;23.73;3.78;;;8.30;99.90;;;;;;5098014;28;20536;-71
2022/11/24 08:23:01;;;;;;;24.08;3.63;;;8.30;99.90;;;;;;5100812;28;20506;-72
2022/11/24 08:25:31;;;;;;;21.80;3.72;;;8.30;99.90;;;;;;5086389;28;20066;-71
2022/11/24 08:28:01;;;;;;;16.55;3.42;;;8.40;99.90;;;;;;5086305;28;20408;-71
2022/11/24 08:30:27;;;;;;;15.77;3.08;;;8.40;99.90;;;;;;5101661;28;20093;-73
2022/11/24 08:32:53;;;;;;;20.48;3.40;;;8.50;99.90;;;;;;5079598;28;20554;-70
2022/11/24 08:35:19;;;;;;;27.83;3.83;;;8.50;99.90;;;;;;5086165;28;20081;-71
2022/11/24 08:37:44;;;;;;;26.00;3.83;;;8.60;99.90;;;;;;5085915;28;20016;-70
2022/11/24 08:40:11;;;;;;;22.52;3.38;;;8.60;99.90;;;;;;5080039;28;20021;-70
2022/11/24 08:42:36;;;;;;;24.20;3.85;;;8.70;99.90;;;;;;5086350;28;20027;-70
2022/11/24 08:45:02;;;;;;;20.80;3.65;;;8.70;99.90;;;;;;5078481;28;20048;-70
2022/11/24 08:47:28;;;;;;;19.67;3.67;;;8.70;99.90;;;;;;5078391;28;20495;-71
2022/11/24 08:49:53;;;;;;;21.55;3.53;;;8.80;99.90;;;;;;5065450;28;20016;-71
2022/11/24 08:52:19;;;;;;;22.98;3.60;;;8.80;99.90;;;;;;5084270;28;20028;-71
2022/11/24 08:54:45;;;;;;;23.52;3.97;;;8.80;99.90;;;;;;5086613;28;20024;-70
2022/11/24 08:57:13;;;;;;;24.05;4.82;;;8.90;99.90;;;;;;5060604;28;20012;-71
2022/11/24 08:59:39;;;;;;;24.95;4.07;;;9.00;99.90;;;;;;5072642;28;20391;-70
2022/11/24 09:02:05;;;;;;;23.27;3.95;;;9.00;99.90;;;;;;5066895;28;20009;-71
2022/11/24 09:04:30;;;;;;;20.38;3.40;;;9.10;99.90;;;;;;5069815;28;20123;-72
2022/11/24 09:06:57;;;;;;;20.98;3.15;;;9.20;99.90;;;;;;5072670;28;20032;-70
2022/11/24 09:09:22;;;;;;;20.55;3.50;;;9.20;99.90;;;;;;5071658;28;20032;-71
2022/11/24 09:11:48;;;;;;;22.90;3.40;;;9.20;99.90;;;;;;5078279;28;20020;-71
2022/11/24 09:14:14;;;;;;;21.35;3.28;;;9.30;99.90;;;;;;5080301;28;20320;-70
2022/11/24 09:16:40;;;;;;;22.75;3.25;;;9.30;99.90;;;;;;5067379;28;20025;-72
2022/11/24 09:19:06;;;;;;;19.60;3.08;;;9.40;99.90;;;;;;5062604;28;20350;-71
2022/11/24 09:21:36;;;;;;;23.23;3.15;;;9.40;99.90;;;;;;5056915;28;20374;-71
2022/11/24 09:24:02;;;;;;;26.75;4.10;;;9.40;99.90;;;;;;5081426;28;20509;-71
2022/11/24 09:26:30;;;;;;;23.77;3.13;;;9.40;99.90;;;;;;5076745;28;20063;-72
2022/11/24 09:28:58;;;;;;;18.08;3.17;;;9.40;99.90;;;;;;5071766;28;20032;-70
2022/11/24 09:31:27;;;;;;;24.70;3.42;;;9.50;99.90;;;;;;5067742;28;20025;-71
2022/11/24 09:33:53;;;;;;;14.80;2.75;;;9.50;99.90;;;;;;5070461;28;20056;-71
2022/11/24 09:36:19;;;;;;;14.95;2.88;;;9.50;99.90;;;;;;5071620;28;20052;-71
2022/11/24 09:38:44;;;;;;;19.70;2.72;;;9.60;99.90;;;;;;5071256;28;20028;-71
2022/11/24 09:41:16;;;;;;;25.08;3.15;;;9.60;99.90;;;;;;5070603;28;20420;-72
2022/11/24 09:44:10;;;;;;;22.85;2.90;;;9.60;99.90;;;;;;5079761;28;20024;-71
2022/11/24 09:47:04;;;;;;;19.83;3.10;;;9.60;99.90;;;;;;5049175;28;20048;-71
2022/11/24 09:49:37;;;;;;;14.57;2.63;;;9.60;99.90;;;;;;5008847;28;20429;-71
2022/11/24 09:52:10;;;;;;;25.65;3.22;;;9.70;99.90;;;;;;5008452;28;20158;-72
2022/11/24 09:54:46;;;;;;;22.05;3.17;;;9.70;99.90;;;;;;5009384;28;20089;-71
2022/11/24 09:57:13;;;;;;;;;;;9.60;99.90;;;;;;5008934;28;20041;-71
2022/11/24 09:59:40;;;;;;;24.15;3.58;;;9.60;99.90;;;;;;5009268;28;19955;-71
2022/11/24 10:02:11;;;;;;;19.88;3.38;;;9.60;99.90;;;;;;4998130;28;20026;-72
2022/11/24 10:04:43;;;;;;;18.30;3.38;;;9.60;99.90;;;;;;5006133;28;20034;-72
2022/11/24 10:07:14;;;;;;;25.17;3.28;;;9.70;99.90;;;;;;5008503;28;20038;-71
2022/11/24 10:09:40;;;;;;;22.67;3.22;;;9.70;99.90;;;;;;5005427;28;20032;-71
2022/11/24 10:12:20;;;;;;;15.98;2.83;;;9.70;99.90;;;;;;4997784;28;20461;-71
2022/11/24 10:15:02;;;;;;;23.50;3.40;;;9.80;99.90;;;;;;5007718;28;20140;-70
2022/11/24 10:17:31;;;;;;;25.65;3.50;;;9.80;99.90;;;;;;5008920;28;20033;-71
2022/11/24 10:20:11;;;;;;;21.20;3.65;;;9.80;99.90;;;;;;4991237;28;20093;-72
2022/11/24 10:22:54;;;;;;;26.23;3.67;;;9.80;99.90;;;;;;4999852;28;20034;-71
2022/11/24 10:25:24;;;;;;;23.38;3.90;;;9.80;99.90;;;;;;5008530;28;20038;-71
2022/11/24 10:28:03;;;;;;;23.17;3.70;;;9.90;99.90;;;;;;5071202;28;20112;-70
2022/11/24 10:30:29;;;;;;;23.88;3.80;;;9.90;99.90;;;;;;5062925;28;20351;-71
2022/11/24 10:33:04;;;;;;;20.88;3.60;;;9.90;99.90;;;;;;5062606;28;20024;-71
2022/11/24 10:35:54;;;;;;;20.23;3.22;;;10.00;99.90;;;;;;5070466;28;20112;-71
2022/11/24 10:38:19;;;;;;;25.70;3.45;;;10.10;99.90;;;;;;5069976;28;20028;-71
2022/11/24 10:40:52;;;;;;;19.50;3.35;;;10.10;99.90;;;;;;5070809;28;20020;-71
2022/11/24 10:43:18;;;;;;;24.65;3.50;;;10.10;99.90;;;;;;5068909;28;20554;-70
2022/11/24 10:45:44;;;;;;;28.10;4.10;;;10.20;99.90;;;;;;5055121;28;20139;-70
2022/11/24 10:48:36;;;;;;;25.05;3.95;;;10.20;99.90;;;;;;5057890;28;20029;-70
2022/11/24 10:51:17;;;;;;;26.33;4.10;;;10.30;99.90;;;;;;5071501;28;20100;-70
2022/11/24 10:53:44;;;;;;;23.60;4.78;;;10.30;99.90;;;;;;5066439;28;20028;-71
2022/11/24 10:56:10;;;;;;;20.33;4.10;;;10.30;99.90;;;;;;5069996;28;20048;-71
2022/11/24 10:58:37;;;;;;;21.02;4.68;;;10.30;99.90;;;;;;5069520;28;20016;-71
2022/11/24 11:01:11;;;;;;;30.98;4.00;;;10.30;99.90;;;;;;5069721;28;20016;-70
2022/11/24 11:03:48;;;;;;;22.80;4.00;;;10.40;99.90;;;;;;5070479;28;20020;-70
2022/11/24 11:06:20;;;;;;;20.40;3.85;;;10.40;99.90;;;;;;5066907;28;20446;-71
2022/11/24 11:08:46;;;;;;;21.48;4.15;;;10.50;99.90;;;;;;5058935;28;20032;-70
2022/11/24 11:11:20;;;;;;;26.88;4.20;;;10.50;99.90;;;;;;5069719;28;20035;-71
2022/11/24 11:13:50;;;;;;;23.13;4.25;;;10.60;99.90;;;;;;5070274;28;20017;-70
2022/11/24 11:16:39;;;;;;;26.88;4.72;;;10.60;99.90;;;;;;5083910;28;20024;-71
2022/11/24 11:19:35;;;;;;;26.02;4.18;;;10.60;99.90;;;;;;5069213;28;20301;-70
2022/11/24 11:22:25;;;;;;;22.67;3.90;;;10.70;99.90;;;;;;5055990;28;20109;-70
2022/11/24 11:25:06;;;;;;;26.27;4.05;;;10.70;99.90;;;;;;5063591;28;20108;-70
2022/11/24 11:27:31;;;;;;;27.83;4.22;;;10.80;99.90;;;;;;5061446;28;20037;-71
2022/11/24 11:30:18;;;;;;;20.35;3.65;;;10.80;99.90;;;;;;5065191;28;20624;-69
2022/11/24 11:32:53;;;;;;;30.70;4.10;;;10.90;99.90;;;;;;5060548;28;20358;-68
2022/11/24 11:35:19;;;;;;;21.17;3.80;;;10.90;99.90;;;;;;5069467;28;20028;-70
2022/11/24 11:37:47;;;;;;;25.25;3.72;;;10.90;99.90;;;;;;5069659;28;20029;-71
2022/11/24 11:40:19;;;;;;;20.83;3.40;;;11.00;99.90;;;;;;5069546;28;20090;-71
2022/11/24 11:42:55;;;;;;;25.13;3.90;;;11.00;99.90;;;;;;5067940;28;20028;-70
2022/11/24 11:45:26;;;;;;;20.77;3.92;;;11.00;99.90;;;;;;5068959;28;20105;-71
2022/11/24 11:48:01;;;;;;;22.50;4.00;;;11.10;99.90;;;;;;5059750;28;20021;-70
2022/11/24 11:50:45;;;;;;;17.15;3.17;;;11.10;99.90;;;;;;5049421;28;20021;-70
2022/11/24 11:53:29;;;;;;;25.50;3.85;;;11.20;99.90;;;;;;5074260;28;20498;-70
2022/11/24 11:56:13;;;;;;;25.63;4.28;;;11.20;99.90;;;;;;5063136;28;20100;-70
2022/11/24 11:58:54;;;;;;;26.15;3.85;;;11.30;99.90;;;;;;5064422;28;20052;-70
2022/11/24 12:01:29;;;;;;;30.65;4.18;;;11.30;99.90;;;;;;5069632;28;20491;-70
2022/11/24 12:04:13;;;;;;;22.15;4.30;;;11.30;99.90;;;;;;5069839;28;20025;-70
2022/11/24 12:07:27;;;;;;;28.00;3.78;;;11.30;99.90;;;;;;5063946;28;20033;-70
2022/11/24 12:10:11;;;;;;;18.05;3.85;;;11.40;99.90;;;;;;5034512;28;20166;-71
2022/11/24 12:12:58;;;;;;;24.13;3.60;;;11.40;99.90;;;;;;5069474;28;20028;-70
2022/11/24 12:15:57;;;;;;;19.85;3.53;;;11.50;99.90;;;;;;5057355;28;20029;-70
2022/11/24 12:18:46;;;;;;;27.85;3.90;;;11.50;99.90;;;;;;5071085;28;20043;-71
2022/11/24 12:21:17;;;;;;;18.52;3.90;;;11.60;99.90;;;;;;5076033;28;20032;-71
2022/11/24 12:24:01;;;;;;;23.48;3.45;;;11.60;99.90;;;;;;5054257;28;20465;-71
2022/11/24 12:26:26;;;;;;;18.55;3.80;;;11.60;99.90;;;;;;5069393;28;20032;-71
2022/11/24 12:29:17;;;;;;;21.63;3.65;;;11.60;99.90;;;;;;5067658;28;20059;-71
2022/11/24 12:31:51;;;;;;;20.05;4.35;;;11.70;99.90;;;;;;5071064;28;20032;-71
2022/11/24 12:34:37;;;;;;;20.08;3.60;;;11.70;99.90;;;;;;5078653;28;20031;-71
2022/11/24 12:37:11;;;;;;;23.13;3.88;;;11.70;99.90;;;;;;5075146;28;20021;-72
2022/11/24 12:39:54;;;;;;;25.95;4.03;;;11.70;99.90;;;;;;5080976;28;20344;-71
2022/11/24 12:42:39;;;;;;;19.50;3.63;;;11.70;99.90;;;;;;5070702;28;20029;-71
2022/11/24 12:45:07;;;;;;;24.13;4.38;;;11.80;99.90;;;;;;5072882;28;20102;-71
2022/11/24 12:47:45;;;;;;;24.52;3.83;;;11.70;99.90;;;;;;5065037;28;20070;-71
2022/11/24 12:50:13;;;;;;;23.48;4.57;;;11.70;99.90;;;;;;5055177;28;20531;-71
2022/11/24 12:52:42;;;;;;;25.23;3.53;;;11.80;99.90;;;;;;5085114;28;20051;-71
2022/11/24 12:55:15;;;;;;;21.17;3.45;;;11.80;99.90;;;;;;5086345;28;20031;-72
2022/11/24 12:58:13;;;;;;;22.20;3.53;;;11.80;99.90;;;;;;5071104;28;20036;-71
2022/11/24 13:01:15;;;;;;;21.52;4.03;;;11.80;99.90;;;;;;5076178;28;20031;-72